Time;durP1;ratioP1;P1;durP2;ratioP2;P2;SDS_P1;SDS_P2;PMS_P1;PMS_P2;Temp;Humidity;BMP_temperature;BMP_pressure;BME280_temperature;BME280_humidity;BME280_pressure;Samples;Min_cycle;Max_cycle;Signal;HPM_P1;HPM_P2
2024/01/31 00:01:38;;;;;;;27.80;23.00;;;;;;;-0.13;82.26;99340.57;106601;1280;25290;-85
2024/01/31 00:04:06;;;;;;;24.50;21.90;;;;;;;-0.16;82.37;99342.58;106543;1280;25486;-85
2024/01/31 00:06:34;;;;;;;26.90;23.70;;;;;;;-0.19;82.07;99339.96;106439;1286;22568;-84
2024/01/31 00:09:03;;;;;;;25.70;23.00;;;;;;;-0.22;81.91;99337.89;106554;1276;22550;-85
2024/01/31 00:11:31;;;;;;;25.40;22.70;;;;;;;-0.25;82.45;99336.33;106513;1285;22668;-86
2024/01/31 00:13:59;;;;;;;26.40;23.50;;;;;;;-0.22;82.87;99341.69;106612;1286;22546;-85
2024/01/31 00:16:27;;;;;;;27.70;24.70;;;;;;;-0.21;82.85;99342.05;106616;1270;24896;-84
2024/01/31 00:18:55;;;;;;;25.50;23.00;;;;;;;-0.21;83.06;99337.66;106577;1285;22549;-85
2024/01/31 00:21:23;;;;;;;26.80;23.30;;;;;;;-0.22;82.56;99338.25;106543;1286;25120;-85
2024/01/31 00:23:55;;;;;;;24.50;22.00;;;;;;;-0.25;82.23;99336.45;106546;1286;25386;-87
2024/01/31 00:26:23;;;;;;;24.90;22.30;;;;;;;-0.25;82.09;99337.52;107108;1285;22660;-84
2024/01/31 00:28:51;;;;;;;24.00;21.10;;;;;;;-0.20;82.09;99339.58;106740;1286;22562;-87
2024/01/31 00:31:19;;;;;;;24.00;21.70;;;;;;;-0.17;82.12;99341.06;106617;1286;22557;-90
2024/01/31 00:33:47;;;;;;;24.10;21.60;;;;;;;-0.17;82.38;99341.84;106811;1286;22543;-88
2024/01/31 00:36:15;;;;;;;24.50;22.10;;;;;;;-0.18;82.73;99338.50;106678;1275;22605;-85
2024/01/31 00:38:43;;;;;;;24.40;22.00;;;;;;;-0.20;82.60;99334.98;106723;1272;22492;-86
2024/01/31 00:41:11;;;;;;;24.40;21.90;;;;;;;-0.24;82.80;99334.58;106939;1264;22623;-85
2024/01/31 00:43:39;;;;;;;24.70;22.20;;;;;;;-0.23;82.78;99341.15;106564;1276;25246;-85
2024/01/31 00:46:07;;;;;;;23.80;21.30;;;;;;;-0.24;82.96;99344.33;106544;1265;22520;-86
2024/01/31 00:48:35;;;;;;;22.80;20.40;;;;;;;-0.23;82.79;99344.02;106771;1275;25287;-85
2024/01/31 00:51:09;;;;;;;25.60;23.00;;;;;;;-0.20;83.23;99341.91;106743;1286;24376;-86
2024/01/31 00:53:38;;;;;;;25.40;22.90;;;;;;;-0.21;83.08;99338.14;106597;1285;22572;-84
2024/01/31 00:56:08;;;;;;;26.40;23.90;;;;;;;-0.22;82.99;99335.94;106656;1283;23929;-84
2024/01/31 00:58:38;;;;;;;27.00;24.30;;;;;;;-0.22;83.09;99333.85;106521;1282;23152;-86
2024/01/31 01:01:06;;;;;;;24.20;21.80;;;;;;;-0.21;83.28;99335.36;106455;1278;22782;-84
2024/01/31 01:03:34;;;;;;;24.70;22.10;;;;;;;-0.18;84.01;99334.61;106571;1279;24206;-84
2024/01/31 01:06:04;;;;;;;26.20;23.50;;;;;;;-0.17;83.48;99335.53;106556;1275;24102;-84
2024/01/31 01:08:32;;;;;;;27.00;24.40;;;;;;;-0.17;83.52;99336.21;106602;1279;25267;-83
2024/01/31 01:11:00;;;;;;;29.60;26.70;;;;;;;-0.20;83.30;99335.17;106573;1282;22554;-82
2024/01/31 01:13:28;;;;;;;27.60;24.80;;;;;;;-0.21;83.17;99334.79;106588;1286;23272;-82
2024/01/31 01:15:56;;;;;;;27.50;24.70;;;;;;;-0.23;83.26;99334.80;106494;1286;22785;-82
2024/01/31 01:18:24;;;;;;;27.50;24.70;;;;;;;-0.24;83.32;99334.56;106556;1286;22574;-82
2024/01/31 01:20:52;;;;;;;31.60;28.10;;;;;;;-0.22;83.49;99332.67;106457;1280;22547;-83
2024/01/31 01:23:20;;;;;;;31.80;28.20;;;;;;;-0.24;83.55;99330.30;106532;1286;23373;-82
2024/01/31 01:25:48;;;;;;;32.80;27.70;;;;;;;-0.26;83.32;99327.27;106571;1282;24475;-83
2024/01/31 01:28:16;;;;;;;30.60;27.40;;;;;;;-0.27;83.29;99329.75;106566;1274;22554;-83
2024/01/31 01:30:44;;;;;;;29.30;26.50;;;;;;;-0.29;82.98;99336.33;106789;1286;22641;-83
2024/01/31 01:33:12;;;;;;;25.40;22.90;;;;;;;-0.35;83.03;99335.45;106884;1275;24053;-84
2024/01/31 01:35:40;;;;;;;23.40;21.10;;;;;;;-0.38;83.16;99335.90;106888;1286;23008;-83
2024/01/31 01:38:08;;;;;;;21.70;19.50;;;;;;;-0.38;82.88;99334.31;106495;1285;25483;-85
2024/01/31 01:40:43;;;;;;;27.80;25.00;;;;;;;-0.40;83.09;99323.95;106580;1267;24287;-85
2024/01/31 01:43:18;;;;;;;25.30;22.70;;;;;;;-0.38;82.96;99328.41;106584;1280;22729;-85
2024/01/31 01:45:46;;;;;;;25.30;22.80;;;;;;;-0.40;82.74;99332.18;106672;1278;24384;-85
2024/01/31 01:48:18;;;;;;;27.60;24.90;;;;;;;-0.43;82.69;99330.52;106545;1273;24152;-85
2024/01/31 01:50:46;;;;;;;26.00;23.40;;;;;;;-0.47;82.91;99335.52;106511;1274;25519;-86
2024/01/31 01:53:14;;;;;;;26.10;23.40;;;;;;;-0.55;83.63;99341.67;106462;1270;22563;-85
2024/01/31 01:55:43;;;;;;;24.30;21.90;;;;;;;-0.64;83.54;99341.88;106563;1270;22659;-86
2024/01/31 01:58:12;;;;;;;26.20;23.50;;;;;;;-0.70;83.60;99338.98;107028;1270;22567;-85
2024/01/31 02:00:43;;;;;;;24.40;22.10;;;;;;;-0.68;84.10;99338.35;107416;1286;25308;-85
2024/01/31 02:03:13;;;;;;;25.80;23.20;;;;;;;-0.65;84.69;99333.35;106595;1285;25472;-83
2024/01/31 02:05:45;;;;;;;25.30;23.00;;;;;;;-0.65;84.95;99331.16;106417;1280;22540;-85
2024/01/31 02:08:13;;;;;;;28.40;25.70;;;;;;;-0.68;84.89;99329.92;106576;1280;22533;-86
2024/01/31 02:10:41;;;;;;;27.50;24.80;;;;;;;-0.72;84.13;99333.15;106419;1271;25411;-86
2024/01/31 02:13:09;;;;;;;24.70;22.30;;;;;;;-0.80;84.04;99330.34;106558;1274;24225;-85
2024/01/31 02:15:37;;;;;;;25.50;23.10;;;;;;;-0.82;84.91;99326.39;106443;1286;22555;-84
2024/01/31 02:18:05;;;;;;;25.00;22.70;;;;;;;-0.82;85.05;99329.00;106563;1271;25397;-85
2024/01/31 02:20:35;;;;;;;33.80;30.70;;;;;;;-0.82;85.22;99324.98;108218;1283;22593;-84
2024/01/31 02:23:03;;;;;;;27.70;24.80;;;;;;;-0.86;84.61;99328.74;109184;1286;22582;-84
2024/01/31 02:25:31;;;;;;;28.70;26.10;;;;;;;-0.92;84.67;99325.92;108580;1286;24364;-85
2024/01/31 02:27:59;;;;;;;31.50;28.40;;;;;;;-0.92;84.75;99329.10;106474;1262;24216;-86
2024/01/31 02:30:27;;;;;;;29.50;26.70;;;;;;;-0.96;85.67;99325.55;106489;1286;22667;-86
2024/01/31 02:32:56;;;;;;;27.00;24.30;;;;;;;-0.97;86.49;99325.73;106512;1278;23681;-87
2024/01/31 02:35:24;;;;;;;28.20;25.50;;;;;;;-0.96;87.34;99323.23;106524;1278;22576;-87
2024/01/31 02:37:52;;;;;;;28.30;25.50;;;;;;;-0.95;88.12;99322.80;106460;1267;22550;-88
2024/01/31 02:40:24;;;;;;;28.10;25.50;;;;;;;-0.95;88.19;99320.36;106462;1274;22543;-88
2024/01/31 02:42:53;;;;;;;25.50;23.00;;;;;;;-0.97;88.37;99323.36;106527;1283;22583;-88
2024/01/31 02:45:21;;;;;;;22.10;19.90;;;;;;;-0.95;88.95;99319.27;106566;1278;25918;-85
2024/01/31 02:47:50;;;;;;;27.40;24.80;;;;;;;-0.90;89.23;99317.88;106551;1283;24061;-87
2024/01/31 02:50:18;;;;;;;27.60;25.10;;;;;;;-0.88;88.58;99318.63;106560;1275;24253;-86
2024/01/31 02:52:47;;;;;;;28.80;26.20;;;;;;;-0.87;87.84;99324.78;106536;1271;22536;-86
2024/01/31 02:55:15;;;;;;;28.10;25.50;;;;;;;-0.87;87.67;99326.20;106441;1286;22582;-87
2024/01/31 02:57:43;;;;;;;25.90;23.60;;;;;;;-0.88;87.69;99326.52;106209;1286;22546;-86
2024/01/31 03:00:12;;;;;;;25.30;23.00;;;;;;;-0.87;87.55;99328.37;106449;1278;22786;-86
2024/01/31 03:02:44;;;;;;;25.40;23.00;;;;;;;-0.85;87.39;99330.71;106474;1286;22740;-86
2024/01/31 03:05:12;;;;;;;28.80;26.20;;;;;;;-0.81;87.57;99332.77;106492;1274;23925;-85
2024/01/31 03:07:41;;;;;;;27.20;24.60;;;;;;;-0.81;87.75;99336.70;106548;1286;25346;-86
2024/01/31 03:10:10;;;;;;;28.20;25.70;;;;;;;-0.83;88.38;99336.30;106522;1274;23233;-87
2024/01/31 03:12:38;;;;;;;30.00;27.20;;;;;;;-0.87;88.35;99334.55;106584;1286;24065;-87
2024/01/31 03:15:06;;;;;;;27.00;24.50;;;;;;;-0.91;88.29;99331.10;106573;1270;22547;-87
2024/01/31 03:17:37;;;;;;;27.10;24.60;;;;;;;-0.94;88.41;99326.72;106528;1275;22671;-87
2024/01/31 03:20:06;;;;;;;27.40;24.70;;;;;;;-0.95;88.83;99329.97;106552;1262;22629;-87
2024/01/31 03:22:34;;;;;;;30.20;27.30;;;;;;;-0.95;89.40;99327.36;106553;1274;22706;-88
2024/01/31 03:25:04;;;;;;;29.70;26.70;;;;;;;-0.96;89.49;99329.09;106584;1280;22679;-88
2024/01/31 03:27:35;;;;;;;26.30;23.90;;;;;;;-0.98;89.66;99334.77;106535;1278;22555;-87
2024/01/31 03:30:03;;;;;;;26.80;24.30;;;;;;;-0.98;89.64;99332.48;106530;1284;24388;-89
2024/01/31 03:32:37;;;;;;;30.30;27.50;;;;;;;-0.98;89.78;99330.17;108866;1280;22594;-88
2024/01/31 03:35:09;;;;;;;29.20;26.50;;;;;;;-0.94;89.77;99331.82;106802;1275;23441;-91
2024/01/31 03:37:37;;;;;;;30.30;27.50;;;;;;;-0.95;90.10;99330.91;106587;1270;24252;-88
2024/01/31 03:40:07;;;;;;;28.30;25.30;;;;;;;-0.97;90.17;99329.41;106665;1275;24251;-89
2024/01/31 03:42:35;;;;;;;28.60;25.60;;;;;;;-0.96;90.42;99333.45;107381;1275;22723;-86
2024/01/31 03:45:05;;;;;;;30.00;27.20;;;;;;;-0.95;90.62;99333.31;108031;1283;22767;-89
2024/01/31 03:47:34;;;;;;;30.50;27.60;;;;;;;-0.94;90.69;99335.59;107861;1286;24318;-89
2024/01/31 03:50:04;;;;;;;30.30;27.50;;;;;;;-0.95;90.96;99335.34;106604;1286;23510;-88
2024/01/31 03:52:35;;;;;;;28.70;25.80;;;;;;;-0.95;90.80;99339.23;106460;1286;22543;-88
2024/01/31 03:55:04;;;;;;;28.10;25.40;;;;;;;-0.94;90.78;99337.64;106621;1286;25420;-88
2024/01/31 03:57:32;;;;;;;29.50;26.50;;;;;;;-0.90;91.15;99336.38;106574;1286;22670;-87
2024/01/31 04:00:05;;;;;;;28.50;25.80;;;;;;;-0.90;91.18;99337.58;106571;1285;22629;-87
2024/01/31 04:02:34;;;;;;;27.50;24.70;;;;;;;-0.92;91.11;99335.16;106454;1286;23901;-87
2024/01/31 04:05:02;;;;;;;28.70;25.90;;;;;;;-0.94;91.38;99334.54;106526;1286;22652;-87
2024/01/31 04:07:31;;;;;;;29.30;26.50;;;;;;;-0.96;91.42;99331.70;106622;1286;24426;-88
2024/01/31 04:09:59;;;;;;;27.90;25.30;;;;;;;-0.97;91.15;99332.35;106425;1286;23132;-85
2024/01/31 04:12:27;;;;;;;37.90;34.50;;;;;;;-0.94;90.65;99333.03;106505;1286;22561;-85
2024/01/31 04:14:56;;;;;;;34.90;31.70;;;;;;;-0.90;90.45;99330.58;106569;1280;22579;-85
2024/01/31 04:17:24;;;;;;;35.90;32.60;;;;;;;-0.90;90.47;99328.18;106574;1286;23905;-87
2024/01/31 04:19:52;;;;;;;33.70;30.50;;;;;;;-0.89;90.07;99335.35;106524;1285;25462;-87
2024/01/31 04:22:20;;;;;;;37.40;34.10;;;;;;;-0.95;89.72;99337.77;106485;1274;25448;-86
2024/01/31 04:24:49;;;;;;;32.80;29.50;;;;;;;-1.00;89.49;99338.41;106511;1273;22682;-86
2024/01/31 04:27:17;;;;;;;32.90;29.70;;;;;;;-1.06;89.55;99339.86;106520;1276;22557;-86
2024/01/31 04:29:45;;;;;;;28.80;26.10;;;;;;;-1.09;89.49;99339.89;106547;1281;24215;-87
2024/01/31 04:32:13;;;;;;;29.80;27.00;;;;;;;-1.07;89.56;99344.71;106602;1285;24349;-86
2024/01/31 04:34:41;;;;;;;29.30;26.60;;;;;;;-1.05;89.91;99342.61;106541;1285;22595;-87
2024/01/31 04:37:10;;;;;;;29.20;26.50;;;;;;;-1.03;89.97;99339.16;106559;1286;23908;-85
2024/01/31 04:39:38;;;;;;;29.70;27.00;;;;;;;-1.00;90.70;99338.55;106579;1280;22561;-89
2024/01/31 04:42:06;;;;;;;29.00;26.20;;;;;;;-1.00;90.34;99338.30;106727;1285;22588;-86
2024/01/31 04:45:03;;;;;;;28.70;26.10;;;;;;;-0.99;90.45;99340.75;106550;1276;22673;-88
2024/01/31 04:47:31;;;;;;;28.80;26.00;;;;;;;-0.98;90.62;99337.82;106612;1285;22610;-87
2024/01/31 04:49:59;;;;;;;28.40;25.80;;;;;;;-0.94;91.20;99338.60;106649;1285;25479;-87
2024/01/31 04:52:27;;;;;;;30.10;27.10;;;;;;;-0.92;91.32;99336.17;106567;1280;22595;-88
2024/01/31 04:54:56;;;;;;;29.40;26.50;;;;;;;-0.91;91.40;99337.53;106661;1286;22539;-86
2024/01/31 04:57:23;;;;;;;30.30;27.40;;;;;;;-0.94;91.46;99337.79;106620;1286;22551;-88
2024/01/31 04:59:51;;;;;;;37.30;33.80;;;;;;;-0.92;91.56;99340.63;106559;1286;22642;-87
2024/01/31 05:02:25;;;;;;;41.40;37.50;;;;;;;-0.86;92.01;99340.60;106502;1280;22775;-87
2024/01/31 05:04:52;;;;;;;54.00;49.10;;;;;;;-0.81;92.11;99340.75;106953;1283;22602;-83
2024/01/31 05:07:21;;;;;;;36.10;32.80;;;;;;;-0.79;92.43;99341.81;106530;1286;24378;-83
2024/01/31 05:09:49;;;;;;;37.90;34.60;;;;;;;-0.78;92.68;99347.18;106524;1278;25298;-84
2024/01/31 05:12:17;;;;;;;36.70;33.00;;;;;;;-0.77;92.87;99341.90;106524;1283;24246;-84
2024/01/31 05:14:45;;;;;;;34.80;31.60;;;;;;;-0.73;92.83;99342.86;106501;1286;22962;-85
2024/01/31 05:17:15;;;;;;;32.80;29.80;;;;;;;-0.68;93.08;99346.30;106547;1283;24323;-84
2024/01/31 05:19:44;;;;;;;31.50;28.60;;;;;;;-0.65;92.97;99345.45;106552;1270;22550;-84
2024/01/31 05:22:12;;;;;;;31.70;28.70;;;;;;;-0.63;93.00;99347.52;106526;1278;25411;-84
2024/01/31 05:24:40;;;;;;;31.90;29.00;;;;;;;-0.62;92.73;99346.45;106433;1286;22548;-84
2024/01/31 05:27:10;;;;;;;29.90;27.10;;;;;;;-0.59;92.80;99347.44;106488;1278;22738;-85
2024/01/31 05:29:37;;;;;;;30.40;27.50;;;;;;;-0.52;93.09;99345.86;106512;1278;25473;-85
2024/01/31 05:32:05;;;;;;;32.00;28.90;;;;;;;-0.48;92.99;99348.54;106524;1286;24401;-85
2024/01/31 05:34:33;;;;;;;31.80;28.80;;;;;;;-0.47;92.64;99347.50;106573;1278;22552;-86
2024/01/31 05:37:02;;;;;;;32.50;29.10;;;;;;;-0.46;92.81;99343.67;106414;1270;22568;-83
2024/01/31 05:39:30;;;;;;;31.20;28.30;;;;;;;-0.43;93.04;99344.63;106420;1267;23985;-85
2024/01/31 05:41:58;;;;;;;35.10;27.90;;;;;;;-0.41;92.60;99335.91;106486;1286;26057;-85
2024/01/31 05:44:26;;;;;;;30.30;27.40;;;;;;;-0.37;92.85;99339.83;106531;1278;22551;-85
2024/01/31 05:46:54;;;;;;;30.90;27.70;;;;;;;-0.37;92.95;99338.36;106563;1280;22668;-86
2024/01/31 05:49:22;;;;;;;30.20;27.40;;;;;;;-0.39;92.90;99337.77;106673;1281;25613;-88
2024/01/31 05:51:51;;;;;;;36.10;25.70;;;;;;;-0.35;93.22;99350.48;109329;1285;22570;-85
2024/01/31 05:54:19;;;;;;;26.90;24.30;;;;;;;-0.35;92.93;99347.50;109297;1278;22592;-87
2024/01/31 05:56:50;;;;;;;28.50;25.90;;;;;;;-0.29;92.48;99347.13;107510;1279;23076;-86
2024/01/31 05:59:25;;;;;;;29.90;27.30;;;;;;;-0.24;93.32;99350.27;106921;1286;22669;-87
2024/01/31 06:01:53;;;;;;;28.80;26.00;;;;;;;-0.20;93.24;99348.79;106637;1286;22541;-89
2024/01/31 06:04:21;;;;;;;30.80;27.90;;;;;;;-0.20;93.21;99348.05;106555;1283;23929;-89
2024/01/31 06:07:41;;;;;;;31.20;28.30;;;;;;;-0.19;92.76;99350.30;106522;1278;24256;-89
2024/01/31 06:10:09;;;;;;;30.40;27.30;;;;;;;-0.19;92.87;99348.47;106591;1281;22757;-88
2024/01/31 06:12:38;;;;;;;31.50;28.30;;;;;;;-0.17;93.00;99349.84;106480;1281;22847;-89
2024/01/31 06:15:08;;;;;;;37.80;34.10;;;;;;;-0.14;92.90;99356.54;106600;1286;22544;-87
2024/01/31 06:17:38;;;;;;;56.70;48.90;;;;;;;-0.11;93.22;99350.80;106942;1286;24061;-85
2024/01/31 06:20:10;;;;;;;53.00;47.60;;;;;;;-0.10;92.93;99347.96;106884;1286;22542;-89
2024/01/31 06:22:38;;;;;;;37.80;34.00;;;;;;;-0.09;92.97;99351.06;106452;1286;25632;-88
2024/01/31 06:25:06;;;;;;;37.20;33.40;;;;;;;-0.04;93.42;99357.17;106515;1286;22620;-87
2024/01/31 06:27:36;;;;;;;38.80;34.80;;;;;;;-0.02;93.44;99361.79;106580;1283;22558;-86
2024/01/31 06:30:05;;;;;;;38.00;34.30;;;;;;;0.00;93.33;99365.31;106595;1281;22635;-86
2024/01/31 06:32:34;;;;;;;52.00;47.00;;;;;;;0.01;93.30;99364.58;106414;1286;22659;-85
2024/01/31 06:35:03;;;;;;;42.30;38.20;;;;;;;-0.00;93.18;99362.65;106548;1286;22539;-87
2024/01/31 06:37:32;;;;;;;36.20;32.60;;;;;;;0.02;93.10;99364.55;106487;1286;22587;-88
2024/01/31 06:40:00;;;;;;;34.30;30.90;;;;;;;0.06;93.20;99370.76;106753;1274;22666;-87
2024/01/31 06:42:28;;;;;;;33.70;30.70;;;;;;;0.11;93.16;99359.74;106561;1286;23149;-87
2024/01/31 06:44:56;;;;;;;32.60;29.70;;;;;;;0.14;93.19;99365.95;106455;1278;25485;-85
2024/01/31 06:47:24;;;;;;;36.70;33.30;;;;;;;0.16;93.31;99367.52;106477;1270;22547;-86
2024/01/31 06:49:52;;;;;;;36.20;32.70;;;;;;;0.18;93.24;99369.51;106602;1283;25539;-87
2024/01/31 06:52:20;;;;;;;36.50;33.00;;;;;;;0.20;93.16;99369.79;106598;1263;22701;-88
2024/01/31 06:54:49;;;;;;;38.50;34.80;;;;;;;0.28;93.44;99372.41;106548;1285;24295;-86
2024/01/31 06:57:17;;;;;;;40.90;36.70;;;;;;;0.33;93.36;99375.05;107016;1283;22495;-87
2024/01/31 06:59:45;;;;;;;36.30;33.00;;;;;;;0.36;93.21;99373.80;107385;1286;22774;-85
2024/01/31 07:02:12;;;;;;;34.50;31.30;;;;;;;0.40;93.27;99376.23;106819;1277;22822;-86
2024/01/31 07:04:40;;;;;;;34.30;31.10;;;;;;;0.45;93.06;99379.91;106873;1278;24238;-86
2024/01/31 07:07:09;;;;;;;32.30;29.30;;;;;;;0.49;93.07;99384.59;106538;1278;23142;-89
2024/01/31 07:09:37;;;;;;;29.50;26.80;;;;;;;0.53;93.04;99383.35;106551;1278;22546;-87
2024/01/31 07:12:05;;;;;;;33.80;30.70;;;;;;;0.56;92.82;99377.15;106616;1278;24263;-86
2024/01/31 07:14:33;;;;;;;31.10;28.40;;;;;;;0.64;92.75;99379.44;106580;1286;25308;-87
2024/01/31 07:17:01;;;;;;;32.80;30.00;;;;;;;0.67;92.70;99375.45;106452;1284;22574;-85
2024/01/31 07:19:29;;;;;;;34.60;31.50;;;;;;;0.72;92.60;99381.78;106525;1286;22750;-86
2024/01/31 07:21:57;;;;;;;30.90;28.00;;;;;;;0.73;92.49;99378.56;106588;1270;22658;-88
2024/01/31 07:24:25;;;;;;;30.40;27.70;;;;;;;0.80;92.51;99379.29;106594;1278;23936;-86
2024/01/31 07:26:57;;;;;;;30.80;27.90;;;;;;;0.83;92.37;99381.26;106613;1271;22954;-88
2024/01/31 07:29:25;;;;;;;35.10;29.00;;;;;;;0.87;92.25;99373.10;106571;1286;22751;-89
2024/01/31 07:31:55;;;;;;;38.80;34.90;;;;;;;0.92;92.34;99374.23;106489;1286;22549;-88
2024/01/31 07:34:23;;;;;;;37.70;34.00;;;;;;;0.94;92.06;99375.41;106464;1285;22833;-86
2024/01/31 07:36:51;;;;;;;41.00;37.00;;;;;;;0.97;92.02;99374.68;106616;1286;24530;-88
2024/01/31 07:39:19;;;;;;;31.50;28.70;;;;;;;1.03;92.11;99375.11;106632;1278;22762;-87
2024/01/31 07:41:48;;;;;;;33.50;30.20;;;;;;;1.08;92.10;99377.58;106609;1286;22558;-88
2024/01/31 07:44:15;;;;;;;34.70;31.60;;;;;;;1.12;91.89;99374.27;106662;1283;24375;-90
2024/01/31 07:46:43;;;;;;;34.80;31.60;;;;;;;1.11;91.80;99377.86;106628;1281;22625;-88
2024/01/31 07:49:12;;;;;;;33.00;29.60;;;;;;;1.13;91.75;99377.38;106557;1286;22556;-90
2024/01/31 07:51:44;;;;;;;31.70;28.50;;;;;;;1.13;91.68;99382.16;106551;1286;22558;-90
2024/01/31 07:54:12;;;;;;;31.30;28.40;;;;;;;1.18;91.94;99381.46;106675;1281;25366;-91
2024/01/31 07:56:40;;;;;;;31.10;28.30;;;;;;;1.20;91.83;99380.09;106672;1286;23382;-89
2024/01/31 07:59:08;;;;;;;33.20;30.00;;;;;;;1.22;91.53;99381.40;106594;1283;25526;-90
2024/01/31 08:01:36;;;;;;;34.20;31.20;;;;;;;1.22;91.56;99383.36;106583;1278;22729;-88
2024/01/31 08:04:05;;;;;;;35.70;32.30;;;;;;;1.25;91.41;99381.61;106434;1286;23191;-88
2024/01/31 08:06:37;;;;;;;33.80;30.70;;;;;;;1.27;91.00;99387.30;106796;1273;22724;-87
2024/01/31 08:09:06;;;;;;;32.20;29.40;;;;;;;1.30;91.23;99387.95;106624;1269;24740;-87
2024/01/31 08:11:48;;;;;;;31.30;28.50;;;;;;;1.37;91.70;99388.33;107313;1281;22557;-87
2024/01/31 08:18:04;;;;;;;32.70;29.80;;;;;;;1.42;91.18;99383.77;106756;1278;22556;-87
2024/01/31 08:20:32;;;;;;;30.60;27.80;;;;;;;1.40;90.95;99385.77;106711;1280;23387;-87
2024/01/31 08:23:01;;;;;;;31.70;29.00;;;;;;;1.37;91.24;99385.96;106661;1286;22633;-88
2024/01/31 08:25:29;;;;;;;34.50;31.20;;;;;;;1.40;91.42;99383.23;106735;1285;23392;-86
2024/01/31 08:27:57;;;;;;;32.40;29.40;;;;;;;1.39;91.05;99382.36;106774;1285;24398;-86
2024/01/31 08:30:26;;;;;;;33.80;30.70;;;;;;;1.34;91.15;99384.20;106679;1281;24215;-87
2024/01/31 08:32:55;;;;;;;32.40;29.40;;;;;;;1.35;90.59;99383.63;106654;1286;22599;-87
2024/01/31 08:35:23;;;;;;;31.20;27.50;;;;;;;1.34;90.58;99385.14;106744;1273;22742;-85
2024/01/31 08:37:51;;;;;;;35.40;30.90;;;;;;;1.34;90.92;99391.52;106908;1286;22656;-89
2024/01/31 08:40:19;;;;;;;34.10;28.50;;;;;;;1.37;91.10;99389.14;106865;1270;22592;-83
2024/01/31 08:42:48;;;;;;;32.90;29.80;;;;;;;1.40;91.07;99390.99;106816;1271;22261;-89
2024/01/31 08:45:16;;;;;;;32.60;29.70;;;;;;;1.43;91.05;99396.27;106873;1281;22632;-86
2024/01/31 08:47:44;;;;;;;33.30;30.10;;;;;;;1.43;90.93;99390.75;106531;1281;22572;-83
2024/01/31 08:50:15;;;;;;;31.40;28.40;;;;;;;1.44;90.71;99397.45;106606;1279;23083;-88
2024/01/31 08:52:43;;;;;;;30.90;28.00;;;;;;;1.48;90.83;99399.50;106828;1272;23877;-86
2024/01/31 08:55:13;;;;;;;32.40;29.30;;;;;;;1.51;90.88;99401.67;106510;1281;25444;-88
2024/01/31 08:57:42;;;;;;;31.30;28.30;;;;;;;1.56;90.94;99400.73;106547;1287;24383;-88
2024/01/31 09:00:11;;;;;;;33.90;30.70;;;;;;;1.56;90.76;99396.23;106843;1278;22748;-86
2024/01/31 09:02:39;;;;;;;33.30;30.30;;;;;;;1.58;90.75;99397.02;106569;1286;23528;-87
2024/01/31 09:05:10;;;;;;;34.30;31.00;;;;;;;1.61;90.24;99400.33;106618;1276;23528;-88
2024/01/31 09:07:38;;;;;;;37.00;33.30;;;;;;;1.62;90.46;99403.47;106764;1286;22974;-87
2024/01/31 09:10:07;;;;;;;45.10;41.00;;;;;;;1.67;90.50;99403.31;106664;1286;24358;-87
2024/01/31 09:17:03;;;;;;;154.60;92.40;;;;;;;1.81;90.72;99403.92;106642;1286;22567;-87
2024/01/31 09:19:31;;;;;;;92.40;77.10;;;;;;;1.84;90.77;99404.70;107171;1286;22582;-86
2024/01/31 09:21:59;;;;;;;93.00;76.10;;;;;;;1.89;90.88;99402.81;108679;1286;23257;-87
2024/01/31 09:24:27;;;;;;;52.00;47.10;;;;;;;1.92;90.34;99406.30;108543;1286;22563;-86
2024/01/31 09:26:55;;;;;;;50.90;46.10;;;;;;;1.94;90.34;99406.59;106946;1283;22653;-87
2024/01/31 09:29:25;;;;;;;71.90;64.50;;;;;;;1.98;90.47;99406.25;106687;1286;24507;-87
2024/01/31 09:31:53;;;;;;;65.60;59.00;;;;;;;2.03;90.60;99404.01;106728;1286;24192;-87
2024/01/31 09:34:23;;;;;;;58.30;52.60;;;;;;;2.08;90.55;99401.38;106617;1286;25483;-87
2024/01/31 09:36:52;;;;;;;65.10;58.80;;;;;;;2.11;90.56;99402.02;106533;1286;25716;-87
2024/01/31 09:39:20;;;;;;;52.70;47.40;;;;;;;2.15;90.29;99402.56;106552;1283;22565;-86
2024/01/31 09:41:48;;;;;;;43.40;39.20;;;;;;;2.16;89.83;99402.95;106548;1286;25426;-86
2024/01/31 09:44:19;;;;;;;41.50;37.60;;;;;;;2.14;89.70;99404.97;106656;1286;22539;-86
2024/01/31 09:46:52;;;;;;;38.80;35.00;;;;;;;2.16;89.58;99407.33;107486;1286;22571;-87
2024/01/31 09:49:20;;;;;;;93.20;53.10;;;;;;;2.20;89.56;99408.89;106753;1286;23558;-87
2024/01/31 09:51:48;;;;;;;55.20;38.80;;;;;;;2.24;89.60;99407.52;106634;1286;22567;-87
2024/01/31 09:54:17;;;;;;;44.80;36.00;;;;;;;2.22;89.26;99403.85;106429;1278;281960;-85
2024/01/31 09:56:45;;;;;;;64.70;39.20;;;;;;;2.22;89.09;99408.96;106522;1286;25031;-85
2024/01/31 09:59:14;;;;;;;58.50;41.60;;;;;;;2.20;88.51;99405.21;106625;1286;22572;-86
2024/01/31 10:01:49;;;;;;;35.70;32.10;;;;;;;2.17;88.70;99402.42;106525;1286;22673;-86
2024/01/31 10:04:24;;;;;;;33.40;30.10;;;;;;;2.19;88.80;99404.14;106564;1284;26680;-87
2024/01/31 10:11:59;;;;;;;37.40;33.60;;;;;;;2.25;88.70;99401.52;106619;1286;23290;-88
2024/01/31 10:14:27;;;;;;;42.10;38.20;;;;;;;2.25;88.62;99395.34;106561;1286;25415;-86
2024/01/31 10:16:55;;;;;;;34.70;31.30;;;;;;;2.29;88.94;99399.63;106654;1286;22570;-86
2024/01/31 10:20:20;;;;;;;36.40;33.00;;;;;;;2.34;88.63;99397.60;106562;1286;25349;-87
2024/01/31 10:22:49;;;;;;;35.60;32.50;;;;;;;2.39;88.70;99389.41;106659;1286;23958;-86
2024/01/31 10:25:18;;;;;;;37.80;34.20;;;;;;;2.42;88.67;99383.14;106675;1278;25420;-86
2024/01/31 10:27:47;;;;;;;48.10;43.80;;;;;;;2.42;88.46;99382.41;106656;1286;24248;-87
2024/01/31 10:30:15;;;;;;;37.30;34.00;;;;;;;2.44;88.72;99384.40;106525;1286;22657;-88
2024/01/31 10:32:45;;;;;;;39.90;36.10;;;;;;;2.46;88.50;99381.94;106600;1283;22861;-89
2024/01/31 10:35:15;;;;;;;36.20;32.70;;;;;;;2.45;87.88;99379.23;106559;1286;22667;-88
2024/01/31 10:37:47;;;;;;;41.00;37.00;;;;;;;2.42;87.81;99381.95;106711;1286;25288;-85
2024/01/31 10:40:28;;;;;;;34.50;31.20;;;;;;;2.42;87.89;99381.63;106653;1286;25258;-86
2024/01/31 10:42:58;;;;;;;35.70;32.30;;;;;;;2.46;88.53;99385.42;106766;1278;22571;-86
2024/01/31 10:45:26;;;;;;;36.10;32.80;;;;;;;2.46;88.13;99383.65;106555;1286;25376;-87
2024/01/31 10:47:55;;;;;;;43.00;39.00;;;;;;;2.42;87.90;99371.14;106578;1286;25441;-88
2024/01/31 10:50:23;;;;;;;38.40;34.90;;;;;;;2.45;87.88;99379.65;106672;1286;22593;-91
2024/01/31 10:52:53;;;;;;;39.40;35.70;;;;;;;2.44;88.00;99381.41;106767;1286;25461;-88
2024/01/31 10:55:23;;;;;;;36.40;33.00;;;;;;;2.46;88.16;99380.05;106708;1286;22549;-86
2024/01/31 10:57:51;;;;;;;35.90;32.40;;;;;;;2.49;88.58;99383.80;106651;1286;22674;-86
2024/01/31 11:00:32;;;;;;;38.70;35.20;;;;;;;2.34;88.59;99353.67;106988;1283;22586;-88
2024/01/31 11:03:03;;;;;;;43.80;39.40;;;;;;;2.50;88.66;99387.61;106674;1286;22782;-87
2024/01/31 11:05:38;;;;;;;42.00;38.00;;;;;;;2.46;88.67;99384.31;106657;1286;22565;-88
2024/01/31 11:08:24;;;;;;;51.90;46.90;;;;;;;2.47;88.26;99387.92;106685;1286;24375;-88
2024/01/31 11:10:53;;;;;;;51.90;47.20;;;;;;;2.44;88.93;99372.98;106650;1286;22567;-87
2024/01/31 11:13:21;;;;;;;76.30;68.20;;;;;;;2.53;89.44;99377.01;106690;1274;23199;-86
2024/01/31 11:15:50;;;;;;;43.20;39.10;;;;;;;2.53;89.24;99375.95;106780;1286;25304;-88
2024/01/31 11:18:19;;;;;;;54.80;49.40;;;;;;;2.50;89.07;99372.71;106995;1286;23087;-87
2024/01/31 11:21:11;;;;;;;55.10;49.70;;;;;;;2.47;88.93;99366.55;107732;1286;22547;-86
2024/01/31 11:23:40;;;;;;;49.80;45.30;;;;;;;2.48;89.09;99360.33;107922;1284;24102;-87
2024/01/31 11:26:08;;;;;;;34.00;30.90;;;;;;;2.51;89.14;99360.44;106593;1286;25444;-91
2024/01/31 11:28:43;;;;;;;35.40;32.00;;;;;;;2.57;89.72;99366.39;107389;1279;22632;-87
2024/01/31 11:31:12;;;;;;;35.60;32.40;;;;;;;2.56;89.81;99363.77;106846;1284;22714;-89
2024/01/31 11:33:40;;;;;;;38.50;34.60;;;;;;;2.53;89.25;99357.48;107147;1286;22838;-86
2024/01/31 11:36:09;;;;;;;39.30;35.70;;;;;;;2.51;89.10;99355.82;106774;1286;22586;-89